createdAt,value
2022-10-26T00:05:24.838Z,448.30
2022-10-26T00:10:56.780Z,447.96
2022-10-26T00:16:28.516Z,447.61
2022-10-26T00:22:00.313Z,447.96
2022-10-26T00:27:32.126Z,448.65
2022-10-26T00:33:03.889Z,449.35
2022-10-26T00:38:35.481Z,449.52
2022-10-26T00:44:07.347Z,449.69
2022-10-26T00:49:38.989Z,450.74
2022-10-26T00:55:16.539Z,451.26
2022-10-26T01:00:48.275Z,450.74
2022-10-26T01:06:20.006Z,450.22
2022-10-26T01:11:51.923Z,450.22
2022-10-26T01:28:27.551Z,449.87
2022-10-26T01:33:59.694Z,449.52
2022-10-26T01:39:31.626Z,449.00
2022-10-26T01:45:03.711Z,448.83
2022-10-26T01:50:35.681Z,450.04
2022-10-26T01:56:10.163Z,449.87
2022-10-26T02:01:41.782Z,449.00
2022-10-26T02:23:49.625Z,449.35
2022-10-26T02:29:21.254Z,449.17
2022-10-26T02:34:53.274Z,449.35
2022-10-26T02:45:56.877Z,449.17
2022-10-26T02:51:28.437Z,449.35
2022-10-26T03:02:32.382Z,449.87
2022-10-26T03:13:36.241Z,451.87
2022-10-26T03:19:08.145Z,452.04
2022-10-26T03:24:40.214Z,452.39
2022-10-26T03:30:12.063Z,452.74
2022-10-26T03:35:45.677Z,452.74
2022-10-26T03:41:17.631Z,452.91
2022-10-26T03:46:49.565Z,452.74
2022-10-26T03:52:21.838Z,452.22
2022-10-26T03:57:53.897Z,452.22
2022-10-26T04:05:38.203Z,452.56
2022-10-26T04:11:10.126Z,452.22
2022-10-26T04:16:42.031Z,451.35
2022-10-26T04:19:06.220Z,450.56
2022-10-26T04:24:38.102Z,450.04
2022-10-26T04:30:09.929Z,449.35
2022-10-26T04:35:41.520Z,448.65
2022-10-26T04:41:13.281Z,448.48
2022-10-26T04:46:45.254Z,448.48
2022-10-26T04:52:17.158Z,447.26
2022-10-26T04:57:49.286Z,445.96
2022-10-26T05:03:21.092Z,444.04
2022-10-26T05:08:53.004Z,441.70
2022-10-26T05:14:24.550Z,440.48
2022-10-26T05:19:55.965Z,440.13
2022-10-26T05:25:27.926Z,439.96
2022-10-26T05:31:05.868Z,439.27
2022-10-26T05:36:37.718Z,438.05
2022-10-26T05:42:09.579Z,437.62
2022-10-26T05:47:41.569Z,436.75
2022-10-26T05:53:13.449Z,436.23
2022-10-26T05:58:45.319Z,435.53
2022-10-26T06:04:17.624Z,435.01
2022-10-26T06:09:49.326Z,435.18
2022-10-26T06:15:21.040Z,435.01
2022-10-26T06:20:52.753Z,435.01
2022-10-26T06:26:24.601Z,434.66
2022-10-26T06:32:02.698Z,435.01
2022-10-26T06:37:34.964Z,435.01
2022-10-26T06:43:07.035Z,435.01
2022-10-26T06:48:38.870Z,435.01
2022-10-26T06:54:16.297Z,435.01
2022-10-26T06:59:48.242Z,435.01
2022-10-26T07:05:20.189Z,435.01
2022-10-26T07:10:52.158Z,434.84
2022-10-26T07:16:23.824Z,434.49
2022-10-26T07:21:55.703Z,434.49
2022-10-26T07:27:27.521Z,434.49
2022-10-26T07:38:28.825Z,434.32
2022-10-26T07:44:00.905Z,434.49
2022-10-26T07:49:33.139Z,434.49
2022-10-26T07:55:04.858Z,435.01
2022-10-26T08:00:36.848Z,435.18
2022-10-26T08:06:08.545Z,435.18
2022-10-26T08:11:40.169Z,434.84
2022-10-26T08:17:12.085Z,434.49
2022-10-26T08:22:43.936Z,434.32
2022-10-26T08:28:16.022Z,433.97
2022-10-26T08:33:49.565Z,434.32
2022-10-26T08:39:21.880Z,434.14
2022-10-26T08:44:53.584Z,433.53
2022-10-26T08:50:25.440Z,432.84
2022-10-26T08:55:57.151Z,432.67
2022-10-26T09:01:29.272Z,432.49
2022-10-26T09:07:01.553Z,432.49
2022-10-26T09:12:33.356Z,432.15
2022-10-26T09:18:06.299Z,432.32
2022-10-26T09:34:38.007Z,432.32
2022-10-26T09:40:10.181Z,431.97
2022-10-26T09:45:42.368Z,431.63
2022-10-26T09:51:14.378Z,430.58
2022-10-26T09:56:46.380Z,430.06
2022-10-26T10:07:47.860Z,429.72
2022-10-26T10:13:19.615Z,429.89
2022-10-26T10:18:51.417Z,429.54
2022-10-26T10:24:25.887Z,429.28
2022-10-26T10:35:29.709Z,429.11
2022-10-26T10:46:33.798Z,428.76
2022-10-26T10:52:06.170Z,428.41
2022-10-26T10:57:38.078Z,427.89
2022-10-26T11:08:42.382Z,427.72
2022-10-26T11:14:14.621Z,427.55
2022-10-26T11:19:46.895Z,427.55
2022-10-26T11:25:18.881Z,427.55
2022-10-26T11:30:50.981Z,427.20
2022-10-26T11:36:23.046Z,426.85
2022-10-26T11:41:54.844Z,426.51
2022-10-26T11:47:26.537Z,426.16
2022-10-26T12:04:02.324Z,424.86
2022-10-26T12:15:06.410Z,423.99
2022-10-26T12:20:38.275Z,423.47
2022-10-26T12:26:10.324Z,423.30
2022-10-26T12:31:48.375Z,422.60
2022-10-26T12:42:54.228Z,421.91
2022-10-26T12:53:57.815Z,421.56
2022-10-26T13:10:33.219Z,420.61
2022-10-26T13:16:05.062Z,420.26
2022-10-26T13:21:36.956Z,420.09
2022-10-26T13:27:08.737Z,420.26
2022-10-26T13:32:40.414Z,420.43
2022-10-26T13:38:12.057Z,420.26
2022-10-26T13:43:43.920Z,419.74
2022-10-26T13:49:15.565Z,419.74
2022-10-26T13:54:47.463Z,419.39
2022-10-26T14:00:23.363Z,419.05
2022-10-26T14:11:26.993Z,418.35
2022-10-26T14:16:58.722Z,418.01
2022-10-26T14:22:30.837Z,418.01
2022-10-26T14:28:12.084Z,418.18
2022-10-26T14:33:44.397Z,418.01
2022-10-26T14:39:16.238Z,417.49
2022-10-26T14:44:48.149Z,417.49
2022-10-26T14:50:19.851Z,417.14
2022-10-26T14:55:51.636Z,416.97
2022-10-26T15:01:23.820Z,416.79
2022-10-26T15:06:55.801Z,415.93
2022-10-26T15:12:27.556Z,415.49
2022-10-26T15:18:00.043Z,415.15
2022-10-26T15:23:31.886Z,414.80
2022-10-26T15:29:03.773Z,414.45
2022-10-26T15:34:36.178Z,413.93
2022-10-26T15:40:08.213Z,413.24
2022-10-26T15:45:40.178Z,412.72
2022-10-26T15:51:12.025Z,412.37
2022-10-26T16:02:14.233Z,411.68
2022-10-26T16:07:45.923Z,411.68
2022-10-26T16:13:17.774Z,411.16
2022-10-26T16:18:51.106Z,411.16
2022-10-26T16:24:21.911Z,410.38
2022-10-26T16:29:53.795Z,410.21
2022-10-26T16:35:25.976Z,409.69
2022-10-26T16:40:58.006Z,409.17
2022-10-26T16:46:30.055Z,408.48
2022-10-26T16:52:02.044Z,408.30
2022-10-26T16:57:33.760Z,407.61
2022-10-26T17:03:05.806Z,406.92
2022-10-26T17:08:38.182Z,406.48
2022-10-26T17:14:10.438Z,405.79
2022-10-26T17:19:42.714Z,405.45
2022-10-26T17:25:15.388Z,404.58
2022-10-26T17:30:47.415Z,404.23
2022-10-26T17:33:00.200Z,403.54
2022-10-26T17:38:31.923Z,403.37
2022-10-26T17:44:03.907Z,402.68
2022-10-26T17:49:36.405Z,402.24
2022-10-26T17:55:07.807Z,401.72
2022-10-26T18:00:39.846Z,401.38
2022-10-26T18:06:11.606Z,400.34
2022-10-26T18:11:43.871Z,400.34
2022-10-26T18:17:16.134Z,399.47
2022-10-26T18:22:48.409Z,398.78
2022-10-26T18:28:20.159Z,398.35
2022-10-26T18:33:52.189Z,397.66
2022-10-26T18:39:24.383Z,397.48
2022-10-26T18:50:28.208Z,396.45
2022-10-26T18:56:00.183Z,396.10
2022-10-26T19:01:32.490Z,395.93
2022-10-26T19:07:04.548Z,395.41
2022-10-26T19:12:36.400Z,395.06
2022-10-26T19:18:08.080Z,393.68
2022-10-26T19:23:39.933Z,393.25
2022-10-26T19:29:11.689Z,393.07
2022-10-26T19:34:43.276Z,392.90
2022-10-26T19:40:15.245Z,392.73
2022-10-26T19:45:46.922Z,392.04
2022-10-26T19:51:18.776Z,391.52
2022-10-26T19:56:50.599Z,391.17
2022-10-26T20:02:22.629Z,390.65
2022-10-26T20:07:54.643Z,390.65
2022-10-26T20:13:26.420Z,390.13
2022-10-26T20:18:58.258Z,389.96
2022-10-26T20:24:29.973Z,389.96
2022-10-26T20:30:01.626Z,389.79
2022-10-26T20:35:33.390Z,389.79
2022-10-26T20:41:07.915Z,389.96
2022-10-26T20:46:37.746Z,389.79
2022-10-26T20:52:20.780Z,389.44
2022-10-26T20:57:41.023Z,389.61
2022-10-26T21:03:12.958Z,389.18
2022-10-26T21:08:44.619Z,388.84
2022-10-26T21:14:16.583Z,388.49
2022-10-26T21:19:48.421Z,388.49
2022-10-26T21:25:20.176Z,388.15
2022-10-26T21:33:13.078Z,387.80
2022-10-26T21:38:44.767Z,387.45
2022-10-26T21:44:25.982Z,387.28
2022-10-26T21:49:48.394Z,386.76
2022-10-26T21:55:20.194Z,386.42
2022-10-26T22:00:52.063Z,386.24
2022-10-26T22:06:23.947Z,386.07
2022-10-26T22:11:55.539Z,386.42
2022-10-26T22:17:27.080Z,386.24
2022-10-26T22:23:00.446Z,386.07
2022-10-26T22:28:33.112Z,385.90
2022-10-26T22:34:07.334Z,386.07
2022-10-26T22:39:35.770Z,386.07
2022-10-26T22:45:07.586Z,386.07
2022-10-26T22:50:39.569Z,385.73
2022-10-26T22:56:11.033Z,385.90
2022-10-26T23:01:42.755Z,385.90
2022-10-26T23:07:14.568Z,385.73
2022-10-26T23:15:07.280Z,386.07
2022-10-26T23:20:39.241Z,385.90
2022-10-26T23:26:10.839Z,385.90
2022-10-26T23:31:42.603Z,386.07
2022-10-26T23:37:14.757Z,385.73
2022-10-26T23:42:46.502Z,385.55
2022-10-26T23:48:18.221Z,386.07
2022-10-26T23:53:50.229Z,385.90
2022-10-26T23:59:22.046Z,385.55
